Time;durP1;ratioP1;P1;durP2;ratioP2;P2;SDS_P1;SDS_P2;PMS_P1;PMS_P2;Temp;Humidity;BMP_temperature;BMP_pressure;BME280_temperature;BME280_humidity;BME280_pressure;Samples;Min_cycle;Max_cycle;Signal;HPM_P1;HPM_P2
2022/10/01 00:02:01;;;;;;;0.20;0.20;;;;;;;;;;5019070;28;20037;-90
2022/10/01 00:04:27;;;;;;;0.10;0.10;;;;;;;;;;5019163;28;20045;-90
2022/10/01 00:06:53;;;;;;;0.13;0.13;;;;;;;;;;5019101;28;20041;-89
2022/10/01 00:09:19;;;;;;;0.10;0.10;;;;;;;;;;5019294;28;20442;-89
2022/10/01 00:11:45;;;;;;;0.10;0.10;;;;;;;;;;5018733;28;20041;-89
2022/10/01 00:14:11;;;;;;;0.10;0.10;;;;;;;;;;5018915;28;20087;-89
2022/10/01 00:16:37;;;;;;;0.10;0.10;;;;;;;;;;5019003;28;20480;-91
2022/10/01 00:19:03;;;;;;;0.38;0.38;;;;;;;;;;5019109;28;20040;-91
2022/10/01 00:21:30;;;;;;;0.30;0.30;;;;;;;;;;5018734;28;20044;-89
2022/10/01 00:23:56;;;;;;;0.10;0.10;;;;;;;;;;5035134;28;20492;-90
2022/10/01 00:26:24;;;;;;;0.10;0.10;;;;;;;;;;5034840;28;20124;-89
2022/10/01 00:28:53;;;;;;;0.77;0.75;;;;;;;;;;5018834;28;20448;-88
2022/10/01 00:31:19;;;;;;;0.10;0.10;;;;;;;;;;5051315;28;20040;-88
2022/10/01 00:33:45;;;;;;;0.35;0.35;;;;;;;;;;5051385;28;20499;-90
2022/10/01 00:36:12;;;;;;;0.20;0.20;;;;;;;;;;5018739;28;20041;-89
2022/10/01 00:38:39;;;;;;;0.10;0.10;;;;;;;;;;5035102;28;20063;-89
2022/10/01 00:41:05;;;;;;;0.10;0.10;;;;;;;;;;5018292;28;20413;-89
2022/10/01 00:43:32;;;;;;;0.10;0.10;;;;;;;;;;5034798;28;20383;-89
2022/10/01 00:46:00;;;;;;;0.10;0.10;;;;;;;;;;5034906;28;20480;-89
2022/10/01 00:48:26;;;;;;;0.20;0.20;;;;;;;;;;5018202;28;20095;-90
2022/10/01 00:50:52;;;;;;;0.10;0.10;;;;;;;;;;5018284;28;20179;-89
2022/10/01 00:53:18;;;;;;;0.10;0.10;;;;;;;;;;5017846;28;20179;-88
2022/10/01 00:55:45;;;;;;;0.10;0.10;;;;;;;;;;5017665;28;20068;-89
2022/10/01 00:58:12;;;;;;;0.40;0.40;;;;;;;;;;5018892;28;20044;-89
2022/10/01 01:00:39;;;;;;;0.40;0.30;;;;;;;;;;5051344;28;20447;-89
2022/10/01 01:03:05;;;;;;;0.10;0.10;;;;;;;;;;5018070;28;20049;-89
2022/10/01 01:05:31;;;;;;;0.10;0.10;;;;;;;;;;5034470;28;20079;-90
2022/10/01 01:08:00;;;;;;;0.50;0.50;;;;;;;;;;5017923;28;20072;-90
2022/10/01 01:10:29;;;;;;;0.10;0.10;;;;;;;;;;5018206;28;20045;-91
2022/10/01 01:13:19;;;;;;;0.20;0.20;;;;;;;;;;5017710;28;20051;-89
2022/10/01 01:16:04;;;;;;;0.20;0.20;;;;;;;;;;4998240;28;20384;-89
2022/10/01 01:18:35;;;;;;;0.10;0.10;;;;;;;;;;5034017;28;20049;-89
2022/10/01 01:21:06;;;;;;;0.10;0.10;;;;;;;;;;5018015;28;20063;-89
2022/10/01 01:23:35;;;;;;;0.10;0.10;;;;;;;;;;5050580;28;20052;-89
2022/10/01 01:26:04;;;;;;;0.10;0.10;;;;;;;;;;5034326;28;20041;-90
2022/10/01 01:28:31;;;;;;;0.15;0.15;;;;;;;;;;5050550;28;20048;-90
2022/10/01 01:30:59;;;;;;;0.20;0.20;;;;;;;;;;5033846;28;20114;-90
2022/10/01 01:33:25;;;;;;;0.30;0.30;;;;;;;;;;5017299;28;20515;-90
2022/10/01 01:35:52;;;;;;;0.10;0.10;;;;;;;;;;5050426;28;20037;-91
2022/10/01 01:38:20;;;;;;;0.10;0.10;;;;;;;;;;5017456;28;20064;-89
2022/10/01 01:40:49;;;;;;;0.20;0.20;;;;;;;;;;5033826;28;20107;-89
2022/10/01 01:43:17;;;;;;;0.40;0.40;;;;;;;;;;5034344;28;20106;-89
2022/10/01 01:45:43;;;;;;;0.55;0.50;;;;;;;;;;5017539;28;20047;-90
2022/10/01 01:48:10;;;;;;;0.20;0.20;;;;;;;;;;5017400;28;20040;-89
2022/10/01 01:50:56;;;;;;;0.10;0.10;;;;;;;;;;5017793;28;20670;-89
2022/10/01 01:53:22;;;;;;;0.10;0.10;;;;;;;;;;5049932;28;20041;-90
2022/10/01 01:55:48;;;;;;;0.10;0.10;;;;;;;;;;5017363;28;20044;-89
2022/10/01 01:58:15;;;;;;;0.20;0.20;;;;;;;;;;5017730;28;20045;-90
2022/10/01 02:00:41;;;;;;;0.10;0.10;;;;;;;;;;5033665;28;20124;-90
2022/10/01 02:03:08;;;;;;;0.10;0.10;;;;;;;;;;5017286;28;20140;-89
2022/10/01 02:05:37;;;;;;;0.15;0.15;;;;;;;;;;5035070;28;20103;-90
2022/10/01 02:08:26;;;;;;;0.10;0.10;;;;;;;;;;5021493;28;20080;-90
2022/10/01 02:10:56;;;;;;;0.10;0.10;;;;;;;;;;5021880;28;20045;-89
2022/10/01 02:13:23;;;;;;;0.10;0.10;;;;;;;;;;5021203;28;20045;-90
2022/10/01 02:16:09;;;;;;;0.10;0.10;;;;;;;;;;5037470;28;20123;-90
2022/10/01 02:18:49;;;;;;;0.10;0.10;;;;;;;;;;5054346;28;20387;-90
2022/10/01 02:21:27;;;;;;;0.10;0.10;;;;;;;;;;5021033;28;20564;-90
2022/10/01 02:23:56;;;;;;;0.20;0.20;;;;;;;;;;5037279;28;20041;-89
2022/10/01 02:26:23;;;;;;;0.10;0.10;;;;;;;;;;5021558;28;20048;-89
2022/10/01 02:28:49;;;;;;;0.20;0.20;;;;;;;;;;5037638;28;20040;-89
2022/10/01 02:31:15;;;;;;;0.20;0.20;;;;;;;;;;5053840;28;20373;-89
2022/10/01 02:33:41;;;;;;;0.10;0.10;;;;;;;;;;5020372;28;20052;-89
2022/10/01 02:36:07;;;;;;;0.10;0.10;;;;;;;;;;5021009;28;20041;-89
2022/10/01 02:38:34;;;;;;;0.10;0.10;;;;;;;;;;5021336;28;20598;-89
2022/10/01 02:41:00;;;;;;;0.10;0.10;;;;;;;;;;5037049;28;20380;-90
2022/10/01 02:43:31;;;;;;;0.10;0.10;;;;;;;;;;5037181;28;20047;-90
2022/10/01 02:45:59;;;;;;;0.10;0.10;;;;;;;;;;5020643;28;20055;-90
2022/10/01 02:48:26;;;;;;;0.10;0.10;;;;;;;;;;5036976;28;20040;-89
2022/10/01 02:51:15;;;;;;;0.10;0.10;;;;;;;;;;5020502;28;20048;-88
2022/10/01 02:53:42;;;;;;;0.10;0.10;;;;;;;;;;5026659;28;20078;-89
2022/10/01 02:56:08;;;;;;;0.10;0.10;;;;;;;;;;5020669;28;20033;-88
2022/10/01 02:58:35;;;;;;;0.28;0.28;;;;;;;;;;5036720;28;20127;-90
2022/10/01 03:01:01;;;;;;;0.10;0.10;;;;;;;;;;5020560;28;20044;-89
2022/10/01 03:03:27;;;;;;;0.13;0.13;;;;;;;;;;5020385;28;20044;-89
2022/10/01 03:05:53;;;;;;;0.10;0.10;;;;;;;;;;5037048;28;20080;-89
2022/10/01 03:08:19;;;;;;;0.10;0.10;;;;;;;;;;5036686;28;20125;-91
2022/10/01 03:10:45;;;;;;;0.17;0.17;;;;;;;;;;5020071;28;20403;-90
2022/10/01 03:13:11;;;;;;;0.10;0.10;;;;;;;;;;5019889;28;20118;-89
2022/10/01 03:15:37;;;;;;;0.32;0.32;;;;;;;;;;5036518;28;20041;-89
2022/10/01 03:18:03;;;;;;;0.10;0.10;;;;;;;;;;5019096;28;20044;-88
2022/10/01 03:20:29;;;;;;;0.20;0.20;;;;;;;;;;5019993;28;20040;-88
2022/10/01 03:22:54;;;;;;;0.20;0.20;;;;;;;;;;5052916;28;20048;-88
2022/10/01 03:25:20;;;;;;;0.10;0.10;;;;;;;;;;5020012;28;20401;-90
2022/10/01 03:27:46;;;;;;;0.10;0.10;;;;;;;;;;5036407;28;20071;-90
2022/10/01 03:30:13;;;;;;;0.10;0.10;;;;;;;;;;5019793;28;20059;-89
2022/10/01 03:32:39;;;;;;;0.20;0.20;;;;;;;;;;5036134;28;20056;-89
2022/10/01 03:35:06;;;;;;;0.10;0.10;;;;;;;;;;5036181;28;20045;-88
2022/10/01 03:37:32;;;;;;;1.48;0.20;;;;;;;;;;5052836;28;20055;-88
2022/10/01 03:39:58;;;;;;;0.10;0.10;;;;;;;;;;5019598;28;20568;-88
2022/10/01 03:42:24;;;;;;;0.10;0.10;;;;;;;;;;5019849;28;20368;-89
2022/10/01 03:44:51;;;;;;;0.10;0.10;;;;;;;;;;5020050;28;20205;-89
2022/10/01 03:47:17;;;;;;;0.10;0.10;;;;;;;;;;5019725;28;20132;-89
2022/10/01 03:49:43;;;;;;;0.10;0.10;;;;;;;;;;5019391;28;20076;-89
2022/10/01 03:52:09;;;;;;;0.10;0.10;;;;;;;;;;5019328;28;20543;-89
2022/10/01 03:54:35;;;;;;;0.17;0.17;;;;;;;;;;5019152;28;20040;-89
2022/10/01 03:57:01;;;;;;;0.10;0.10;;;;;;;;;;5035528;28;20056;-88
2022/10/01 03:59:28;;;;;;;0.10;0.10;;;;;;;;;;5019457;28;20491;-89
2022/10/01 04:01:54;;;;;;;0.10;0.10;;;;;;;;;;5035812;28;20048;-90
2022/10/01 04:04:20;;;;;;;0.10;0.10;;;;;;;;;;5019345;28;20045;-88
2022/10/01 04:06:46;;;;;;;0.10;0.10;;;;;;;;;;5035356;28;20605;-89
2022/10/01 04:09:12;;;;;;;0.10;0.10;;;;;;;;;;5035263;28;20411;-89
2022/10/01 04:11:38;;;;;;;0.10;0.10;;;;;;;;;;5035924;28;20135;-88
2022/10/01 04:14:04;;;;;;;0.10;0.10;;;;;;;;;;5035450;28;20456;-88
2022/10/01 04:16:33;;;;;;;0.10;0.10;;;;;;;;;;5018753;28;20088;-89
2022/10/01 04:18:59;;;;;;;0.20;0.20;;;;;;;;;;5019489;28;20040;-89
2022/10/01 04:21:25;;;;;;;0.10;0.10;;;;;;;;;;5035213;28;20498;-89
2022/10/01 04:23:52;;;;;;;0.10;0.10;;;;;;;;;;5018771;28;20045;-89
2022/10/01 04:26:18;;;;;;;0.20;0.20;;;;;;;;;;5018871;28;20051;-89
2022/10/01 04:28:45;;;;;;;0.20;0.20;;;;;;;;;;5018899;28;20045;-88
2022/10/01 04:31:23;;;;;;;0.10;0.10;;;;;;;;;;5018730;28;20051;-88
2022/10/01 04:33:49;;;;;;;0.10;0.10;;;;;;;;;;5051535;28;20115;-89
2022/10/01 04:36:16;;;;;;;0.10;0.10;;;;;;;;;;5018048;28;20082;-89
2022/10/01 04:38:42;;;;;;;0.10;0.10;;;;;;;;;;5034939;28;20539;-90
2022/10/01 04:41:08;;;;;;;0.10;0.10;;;;;;;;;;5018368;28;20124;-90
2022/10/01 04:43:34;;;;;;;0.10;0.10;;;;;;;;;;5018622;28;20048;-90
2022/10/01 04:46:00;;;;;;;0.52;0.50;;;;;;;;;;5018313;28;20044;-90
2022/10/01 04:48:26;;;;;;;0.10;0.10;;;;;;;;;;5018445;28;20040;-89
2022/10/01 04:50:52;;;;;;;0.10;0.10;;;;;;;;;;5034665;28;20366;-90
2022/10/01 04:53:18;;;;;;;0.10;0.10;;;;;;;;;;5018428;28;20045;-89
2022/10/01 04:55:45;;;;;;;0.20;0.20;;;;;;;;;;5018164;28;20045;-89
2022/10/01 04:58:11;;;;;;;0.10;0.10;;;;;;;;;;5018265;28;20040;-90
2022/10/01 05:00:37;;;;;;;0.10;0.10;;;;;;;;;;5034708;28;20029;-89
2022/10/01 05:03:03;;;;;;;0.15;0.15;;;;;;;;;;5018186;28;20041;-88
2022/10/01 05:05:31;;;;;;;0.10;0.10;;;;;;;;;;5017904;28;20045;-89
2022/10/01 05:07:57;;;;;;;0.10;0.10;;;;;;;;;;5018346;28;20063;-88
2022/10/01 05:10:23;;;;;;;0.10;0.10;;;;;;;;;;5034794;28;20045;-89
2022/10/01 05:12:50;;;;;;;0.10;0.10;;;;;;;;;;5034270;28;20047;-88
2022/10/01 05:15:16;;;;;;;0.10;0.10;;;;;;;;;;5034538;28;20518;-88
2022/10/01 05:17:42;;;;;;;0.10;0.10;;;;;;;;;;5017921;28;20036;-89
2022/10/01 05:20:10;;;;;;;0.10;0.10;;;;;;;;;;5034271;28;20072;-89
2022/10/01 05:22:36;;;;;;;0.10;0.10;;;;;;;;;;5034170;28;20083;-89
2022/10/01 05:25:03;;;;;;;0.10;0.10;;;;;;;;;;5018184;28;20108;-88
2022/10/01 05:27:30;;;;;;;0.10;0.10;;;;;;;;;;5017713;28;20033;-87
2022/10/01 05:29:56;;;;;;;0.10;0.10;;;;;;;;;;5034377;28;20060;-90
2022/10/01 05:32:22;;;;;;;0.10;0.10;;;;;;;;;;5034058;28;20395;-90
2022/10/01 05:34:48;;;;;;;0.10;0.10;;;;;;;;;;5017616;28;20127;-90
2022/10/01 05:37:14;;;;;;;0.10;0.10;;;;;;;;;;5034193;28;20041;-92
2022/10/01 05:39:40;;;;;;;0.10;0.10;;;;;;;;;;5017321;28;20036;-90
2022/10/01 05:42:06;;;;;;;0.10;0.10;;;;;;;;;;5034133;28;20051;-90
2022/10/01 05:44:36;;;;;;;0.10;0.10;;;;;;;;;;5050897;28;20068;-90
2022/10/01 05:47:03;;;;;;;0.10;0.10;;;;;;;;;;5034762;28;20094;-89
2022/10/01 05:49:29;;;;;;;0.10;0.10;;;;;;;;;;5017645;28;20049;-88
2022/10/01 05:51:55;;;;;;;0.10;0.10;;;;;;;;;;5034074;28;20408;-87
2022/10/01 05:54:23;;;;;;;0.20;0.20;;;;;;;;;;5017486;28;20036;-91
2022/10/01 05:56:50;;;;;;;0.10;0.10;;;;;;;;;;5017953;28;20105;-91
2022/10/01 05:59:16;;;;;;;0.10;0.10;;;;;;;;;;5033894;28;20052;-91
2022/10/01 06:01:42;;;;;;;0.10;0.10;;;;;;;;;;5017354;28;20365;-90
2022/10/01 06:04:09;;;;;;;0.20;0.20;;;;;;;;;;5033884;28;20056;-91
2022/10/01 06:06:35;;;;;;;0.10;0.10;;;;;;;;;;5017750;28;20037;-91
2022/10/01 06:09:01;;;;;;;0.10;0.10;;;;;;;;;;5017858;28;20049;-89
2022/10/01 06:11:27;;;;;;;0.10;0.10;;;;;;;;;;5017659;28;20560;-90
2022/10/01 06:13:55;;;;;;;0.10;0.10;;;;;;;;;;5017885;28;20041;-91
2022/10/01 06:16:21;;;;;;;0.20;0.20;;;;;;;;;;5017111;28;20041;-90
2022/10/01 06:18:48;;;;;;;0.10;0.10;;;;;;;;;;5017420;28;20044;-90
2022/10/01 06:21:14;;;;;;;0.10;0.10;;;;;;;;;;5033840;28;20048;-91
2022/10/01 06:23:43;;;;;;;0.10;0.10;;;;;;;;;;5017590;28;20087;-91
2022/10/01 06:26:09;;;;;;;0.52;0.40;;;;;;;;;;5017570;28;20045;-91
2022/10/01 06:28:35;;;;;;;0.10;0.10;;;;;;;;;;5017507;28;20110;-90
2022/10/01 06:31:01;;;;;;;0.10;0.10;;;;;;;;;;5016997;28;20063;-90
2022/10/01 06:33:27;;;;;;;0.10;0.10;;;;;;;;;;5017342;28;20053;-90
2022/10/01 06:35:53;;;;;;;0.10;0.10;;;;;;;;;;5017126;28;20381;-91
2022/10/01 06:38:21;;;;;;;0.10;0.10;;;;;;;;;;5017462;28;20048;-91
2022/10/01 06:40:50;;;;;;;0.10;0.10;;;;;;;;;;5033150;28;20049;-91
2022/10/01 06:43:16;;;;;;;0.10;0.10;;;;;;;;;;5033782;28;20400;-91
2022/10/01 06:45:42;;;;;;;0.10;0.10;;;;;;;;;;5016935;28;20045;-91
2022/10/01 06:48:12;;;;;;;0.10;0.10;;;;;;;;;;5018400;28;20389;-90
2022/10/01 06:50:38;;;;;;;0.10;0.10;;;;;;;;;;5039315;28;20047;-90
2022/10/01 06:53:05;;;;;;;0.10;0.10;;;;;;;;;;5040280;28;20515;-89
2022/10/01 06:55:31;;;;;;;0.10;0.10;;;;;;;;;;5031117;28;20056;-92
2022/10/01 06:58:01;;;;;;;0.10;0.10;;;;;;;;;;5062577;28;20029;-91
2022/10/01 07:00:28;;;;;;;0.13;0.13;;;;;;;;;;5045876;28;20040;-90
2022/10/01 07:02:54;;;;;;;0.10;0.10;;;;;;;;;;5022265;28;20689;-91
2022/10/01 07:05:20;;;;;;;0.10;0.10;;;;;;;;;;5020777;28;20052;-91
2022/10/01 07:07:49;;;;;;;0.20;0.20;;;;;;;;;;5015711;28;20081;-91
2022/10/01 07:10:15;;;;;;;0.25;0.22;;;;;;;;;;5017643;28;20440;-90
2022/10/01 07:12:42;;;;;;;0.10;0.10;;;;;;;;;;5019628;28;20377;-91
2022/10/01 07:15:09;;;;;;;0.10;0.10;;;;;;;;;;5036515;28;20439;-90
2022/10/01 07:17:41;;;;;;;0.10;0.10;;;;;;;;;;5020156;28;20037;-89
2022/10/01 07:20:07;;;;;;;0.10;0.10;;;;;;;;;;5020137;28;20112;-91
2022/10/01 07:22:33;;;;;;;0.20;0.20;;;;;;;;;;5020302;28;20033;-91
2022/10/01 07:24:59;;;;;;;0.20;0.20;;;;;;;;;;5020522;28;20393;-89
2022/10/01 07:27:25;;;;;;;0.10;0.10;;;;;;;;;;5019793;28;20056;-89
2022/10/01 07:29:52;;;;;;;0.10;0.10;;;;;;;;;;5019843;28;20048;-91
2022/10/01 07:32:18;;;;;;;0.10;0.10;;;;;;;;;;5019638;28;20103;-92
2022/10/01 07:34:44;;;;;;;0.10;0.10;;;;;;;;;;5019877;28;20044;-92
2022/10/01 07:37:15;;;;;;;0.10;0.10;;;;;;;;;;5019991;28;20041;-93
2022/10/01 07:39:41;;;;;;;0.10;0.10;;;;;;;;;;5052864;28;20041;-94
2022/10/01 07:42:07;;;;;;;0.10;0.10;;;;;;;;;;5019776;28;20041;-90
2022/10/01 07:44:33;;;;;;;0.10;0.10;;;;;;;;;;5019736;28;20037;-92
2022/10/01 07:46:59;;;;;;;0.20;0.20;;;;;;;;;;5020142;28;20148;-91
2022/10/01 07:49:25;;;;;;;0.10;0.10;;;;;;;;;;5019480;28;20076;-89
2022/10/01 07:51:52;;;;;;;0.10;0.10;;;;;;;;;;5052347;28;20068;-92
2022/10/01 07:54:19;;;;;;;0.10;0.10;;;;;;;;;;5036027;28;20052;-88
2022/10/01 07:56:45;;;;;;;0.10;0.10;;;;;;;;;;5019650;28;20041;-89
2022/10/01 07:59:12;;;;;;;0.10;0.10;;;;;;;;;;5019295;28;20071;-89
2022/10/01 08:01:38;;;;;;;0.10;0.10;;;;;;;;;;5037079;28;20108;-93
2022/10/01 08:05:16;;;;;;;0.10;0.10;;;;;;;;;;5019224;28;20110;-89
2022/10/01 08:06:50;;;;;;;0.10;0.10;;;;;;;;;;5038716;28;20094;-92
2022/10/01 08:09:16;;;;;;;0.10;0.10;;;;;;;;;;5020026;28;20045;-92
2022/10/01 08:11:44;;;;;;;0.10;0.10;;;;;;;;;;5017391;28;20104;-91
2022/10/01 08:14:10;;;;;;;0.10;0.10;;;;;;;;;;5018868;28;20488;-92
2022/10/01 08:16:38;;;;;;;0.10;0.10;;;;;;;;;;5035306;28;20037;-91
2022/10/01 08:19:04;;;;;;;0.10;0.10;;;;;;;;;;5019315;28;20157;-88
2022/10/01 08:21:30;;;;;;;0.10;0.10;;;;;;;;;;5018819;28;20033;-89
2022/10/01 08:23:56;;;;;;;0.20;0.20;;;;;;;;;;5035383;28;20049;-89
2022/10/01 08:26:22;;;;;;;0.10;0.10;;;;;;;;;;5051482;28;20140;-91
2022/10/01 08:28:48;;;;;;;0.95;0.95;;;;;;;;;;5034918;28;20397;-91
2022/10/01 08:31:14;;;;;;;0.10;0.10;;;;;;;;;;5018349;28;20052;-91
2022/10/01 08:33:40;;;;;;;0.10;0.10;;;;;;;;;;5018642;28;20404;-91
2022/10/01 08:36:09;;;;;;;0.10;0.10;;;;;;;;;;5018568;28;20474;-91
2022/10/01 08:38:35;;;;;;;0.10;0.10;;;;;;;;;;5018667;28;20048;-91
2022/10/01 08:41:06;;;;;;;0.10;0.10;;;;;;;;;;5018120;28;20041;-91
2022/10/01 08:43:38;;;;;;;0.30;0.30;;;;;;;;;;5018936;28;20037;-90
2022/10/01 08:46:06;;;;;;;0.10;0.10;;;;;;;;;;5034611;28;20136;-92
2022/10/01 08:49:13;;;;;;;0.10;0.10;;;;;;;;;;5020302;28;20052;-96
2022/10/01 08:51:49;;;;;;;0.10;0.10;;;;;;;;;;5053879;28;20084;-92
2022/10/01 08:54:15;;;;;;;0.10;0.10;;;;;;;;;;5034690;28;20073;-92
2022/10/01 08:56:44;;;;;;;0.10;0.10;;;;;;;;;;5050882;28;20514;-91
2022/10/01 08:59:28;;;;;;;0.10;0.10;;;;;;;;;;5018577;28;20516;-95
2022/10/01 09:01:57;;;;;;;0.20;0.20;;;;;;;;;;5098059;23;20113;-93
2022/10/01 09:04:23;;;;;;;0.10;0.10;;;;;;;;;;4972638;28;20081;-95
2022/10/01 09:07:11;;;;;;;0.10;0.10;;;;;;;;;;4959148;28;20050;-96
2022/10/01 09:10:03;;;;;;;0.10;0.10;;;;;;;;;;4986981;28;20050;-96
2022/10/01 09:13:21;;;;;;;0.20;0.20;;;;;;;;;;4976907;28;20039;-96
2022/10/01 09:16:29;;;;;;;0.30;0.30;;;;;;;;;;4981240;28;20058;-96
2022/10/01 09:19:22;;;;;;;0.20;0.20;;;;;;;;;;4960877;28;20047;-89
2022/10/01 09:21:52;;;;;;;0.20;0.20;;;;;;;;;;4956913;28;20058;-92
2022/10/01 09:24:40;;;;;;;0.40;0.35;;;;;;;;;;4924441;28;20054;-94
2022/10/01 09:27:15;;;;;;;0.10;0.10;;;;;;;;;;4956431;28;20066;-94
2022/10/01 09:29:51;;;;;;;0.22;0.22;;;;;;;;;;4923109;28;20154;-95
2022/10/01 09:32:21;;;;;;;0.10;0.10;;;;;;;;;;4923427;28;20090;-93
2022/10/01 09:34:49;;;;;;;0.10;0.10;;;;;;;;;;4940077;28;20126;-93
2022/10/01 09:37:32;;;;;;;0.10;0.10;;;;;;;;;;4923265;28;20498;-91
2022/10/01 09:40:14;;;;;;;0.10;0.10;;;;;;;;;;4936225;29;20062;-92
2022/10/01 09:42:59;;;;;;;0.20;0.20;;;;;;;;;;4936749;29;20043;-96
2022/10/01 09:45:27;;;;;;;0.20;0.20;;;;;;;;;;4954079;28;20054;-94
2022/10/01 09:47:54;;;;;;;0.10;0.10;;;;;;;;;;4921704;29;20098;-92
2022/10/01 09:51:06;;;;;;;0.20;0.20;;;;;;;;;;4937611;29;20039;-92
2022/10/01 09:53:33;;;;;;;0.10;0.10;;;;;;;;;;4937706;29;20043;-93
2022/10/01 09:56:02;;;;;;;0.10;0.10;;;;;;;;;;4922533;29;20490;-92
2022/10/01 09:58:29;;;;;;;0.10;0.10;;;;;;;;;;4923648;29;20046;-94
2022/10/01 10:00:55;;;;;;;0.10;0.10;;;;;;;;;;4921278;29;20036;-90
2022/10/01 10:03:29;;;;;;;0.32;0.32;;;;;;;;;;4920458;29;20139;-91
2022/10/01 10:05:55;;;;;;;0.10;0.10;;;;;;;;;;4921076;29;20047;-91
2022/10/01 10:08:30;;;;;;;0.20;0.20;;;;;;;;;;4936431;29;20054;-90
2022/10/01 10:10:59;;;;;;;0.10;0.10;;;;;;;;;;4920738;29;20110;-91
2022/10/01 10:13:34;;;;;;;0.98;0.95;;;;;;;;;;4921085;29;20471;-91
2022/10/01 10:16:00;;;;;;;0.10;0.10;;;;;;;;;;4936610;29;20047;-91
2022/10/01 10:18:33;;;;;;;0.10;0.10;;;;;;;;;;4920574;29;20175;-91
2022/10/01 10:21:01;;;;;;;0.20;0.20;;;;;;;;;;4921509;29;20066;-93
2022/10/01 10:23:30;;;;;;;0.20;0.20;;;;;;;;;;4920884;29;20079;-93
2022/10/01 10:25:59;;;;;;;0.10;0.10;;;;;;;;;;4921305;28;20134;-93
2022/10/01 10:28:26;;;;;;;0.10;0.10;;;;;;;;;;4940519;29;20047;-91
2022/10/01 10:30:53;;;;;;;0.10;0.10;;;;;;;;;;4947752;29;20051;-92
2022/10/01 10:33:20;;;;;;;0.10;0.10;;;;;;;;;;4939954;29;20138;-90
2022/10/01 10:35:46;;;;;;;0.20;0.20;;;;;;;;;;4940091;29;20102;-91
2022/10/01 10:38:19;;;;;;;0.10;0.10;;;;;;;;;;4924250;29;20051;-91
2022/10/01 10:40:45;;;;;;;0.10;0.10;;;;;;;;;;4925100;29;20043;-90
2022/10/01 10:43:19;;;;;;;0.13;0.13;;;;;;;;;;4923916;29;20046;-90
2022/10/01 10:45:45;;;;;;;0.10;0.10;;;;;;;;;;4924312;29;20047;-91
2022/10/01 10:48:13;;;;;;;0.17;0.17;;;;;;;;;;4939945;29;20051;-90
2022/10/01 10:50:40;;;;;;;0.10;0.10;;;;;;;;;;4939880;29;20043;-88
2022/10/01 10:53:19;;;;;;;0.10;0.10;;;;;;;;;;4923869;29;20107;-89
2022/10/01 10:56:14;;;;;;;0.10;0.10;;;;;;;;;;4923756;29;20035;-89
2022/10/01 10:58:41;;;;;;;0.10;0.10;;;;;;;;;;4951406;29;20384;-88
2022/10/01 11:01:09;;;;;;;0.10;0.10;;;;;;;;;;4939550;29;20125;-89
2022/10/01 11:03:36;;;;;;;0.10;0.10;;;;;;;;;;4955696;29;20119;-88
2022/10/01 11:06:03;;;;;;;0.15;0.15;;;;;;;;;;4923324;29;20074;-89
2022/10/01 11:08:29;;;;;;;0.15;0.15;;;;;;;;;;4923464;29;20129;-88
2022/10/01 11:11:14;;;;;;;0.10;0.10;;;;;;;;;;4939061;29;20536;-89
2022/10/01 11:13:48;;;;;;;0.10;0.10;;;;;;;;;;4955039;29;20159;-88
2022/10/01 11:16:23;;;;;;;0.10;0.10;;;;;;;;;;4955110;29;20122;-89
2022/10/01 11:19:08;;;;;;;0.10;0.10;;;;;;;;;;4955010;29;20122;-88
2022/10/01 11:21:52;;;;;;;0.10;0.10;;;;;;;;;;4955252;29;20097;-89
2022/10/01 11:24:18;;;;;;;0.10;0.10;;;;;;;;;;4954914;29;20047;-89
2022/10/01 11:26:48;;;;;;;0.10;0.10;;;;;;;;;;4954818;29;20043;-89
2022/10/01 11:29:14;;;;;;;0.10;0.10;;;;;;;;;;4938919;29;20043;-89
2022/10/01 11:31:45;;;;;;;0.17;0.17;;;;;;;;;;4954551;29;20047;-89
2022/10/01 11:34:29;;;;;;;0.10;0.10;;;;;;;;;;4954758;29;20517;-90
2022/10/01 11:37:00;;;;;;;0.10;0.10;;;;;;;;;;4938884;29;20043;-90
2022/10/01 11:39:26;;;;;;;0.10;0.10;;;;;;;;;;4937988;29;20134;-91
2022/10/01 11:42:12;;;;;;;0.10;0.10;;;;;;;;;;4923161;29;20039;-91
2022/10/01 11:44:41;;;;;;;0.10;0.10;;;;;;;;;;4938638;29;20084;-92
2022/10/01 11:47:19;;;;;;;0.10;0.10;;;;;;;;;;4938731;29;20046;-92
2022/10/01 11:49:49;;;;;;;0.10;0.10;;;;;;;;;;4923248;29;20055;-90
2022/10/01 11:52:31;;;;;;;0.10;0.10;;;;;;;;;;4938759;29;20054;-90
2022/10/01 11:58:49;;;;;;;0.10;0.10;;;;;;;;;;4954291;29;20090;-90
2022/10/01 12:00:35;;;;;;;2.65;1.13;;;;;;;;;;4954454;29;20083;-92
2022/10/01 12:03:01;;;;;;;0.20;0.20;;;;;;;;;;4922292;29;20097;-93
2022/10/01 12:05:30;;;;;;;0.10;0.10;;;;;;;;;;4923362;29;20154;-94
2022/10/01 12:08:02;;;;;;;0.17;0.17;;;;;;;;;;4923014;29;20039;-93
2022/10/01 12:10:40;;;;;;;0.10;0.10;;;;;;;;;;4922321;29;20043;-90
2022/10/01 12:13:06;;;;;;;0.10;0.10;;;;;;;;;;4938642;29;20047;-92
2022/10/01 12:15:36;;;;;;;0.10;0.10;;;;;;;;;;4938882;29;20073;-95
2022/10/01 12:18:14;;;;;;;0.10;0.10;;;;;;;;;;4938642;29;20039;-93
2022/10/01 12:21:00;;;;;;;0.10;0.10;;;;;;;;;;4954229;29;20042;-92
2022/10/01 12:23:26;;;;;;;0.10;0.10;;;;;;;;;;4923870;29;20102;-92
2022/10/01 12:26:13;;;;;;;0.10;0.10;;;;;;;;;;4938677;29;20129;-89
2022/10/01 12:28:49;;;;;;;0.10;0.10;;;;;;;;;;4954107;29;20042;-92
2022/10/01 12:31:22;;;;;;;0.10;0.10;;;;;;;;;;4938343;29;20047;-91
2022/10/01 12:33:51;;;;;;;0.45;0.45;;;;;;;;;;4938192;29;20082;-90
2022/10/01 12:36:36;;;;;;;0.10;0.10;;;;;;;;;;4937872;29;20039;-91
2022/10/01 12:39:13;;;;;;;0.20;0.20;;;;;;;;;;4938041;29;20035;-90
2022/10/01 12:41:40;;;;;;;0.10;0.10;;;;;;;;;;4935624;29;20038;-92
2022/10/01 12:44:13;;;;;;;0.10;0.10;;;;;;;;;;4953649;29;20057;-92
2022/10/01 12:46:57;;;;;;;0.10;0.10;;;;;;;;;;4921803;29;20133;-92
2022/10/01 12:49:28;;;;;;;0.10;0.10;;;;;;;;;;4921762;29;20077;-92
2022/10/01 12:51:58;;;;;;;0.10;0.10;;;;;;;;;;4921787;29;20110;-92
2022/10/01 12:55:03;;;;;;;0.20;0.20;;;;;;;;;;4922415;29;20138;-95
2022/10/01 12:57:43;;;;;;;0.10;0.10;;;;;;;;;;4954876;29;20051;-93
2022/10/01 13:00:19;;;;;;;0.10;0.10;;;;;;;;;;4924512;29;20427;-93
2022/10/01 13:02:54;;;;;;;0.10;0.10;;;;;;;;;;4953502;29;20114;-91
2022/10/01 13:05:23;;;;;;;0.10;0.10;;;;;;;;;;4953033;29;20051;-89
2022/10/01 13:07:55;;;;;;;0.10;0.10;;;;;;;;;;4953131;29;20039;-89
2022/10/01 13:10:40;;;;;;;0.10;0.10;;;;;;;;;;4953521;29;20039;-89
2022/10/01 13:13:24;;;;;;;0.10;0.10;;;;;;;;;;4952975;29;20130;-89
2022/10/01 13:15:53;;;;;;;0.10;0.10;;;;;;;;;;4952816;29;20498;-89
2022/10/01 13:18:46;;;;;;;0.10;0.10;;;;;;;;;;4921428;29;20130;-88
2022/10/01 13:21:31;;;;;;;0.10;0.10;;;;;;;;;;4929540;29;20051;-93
2022/10/01 13:24:15;;;;;;;0.10;0.10;;;;;;;;;;4953906;29;20057;-94
2022/10/01 13:26:44;;;;;;;0.10;0.10;;;;;;;;;;4922242;29;20073;-93
2022/10/01 13:29:13;;;;;;;0.10;0.10;;;;;;;;;;4937026;29;20534;-92
2022/10/01 13:31:58;;;;;;;0.10;0.10;;;;;;;;;;4936970;29;20051;-92
2022/10/01 13:34:40;;;;;;;0.10;0.10;;;;;;;;;;4936887;29;20079;-91
2022/10/01 13:37:29;;;;;;;0.10;0.10;;;;;;;;;;4921439;29;20399;-89
2022/10/01 13:39:56;;;;;;;0.17;0.17;;;;;;;;;;4934573;29;20462;-89
2022/10/01 13:42:24;;;;;;;0.10;0.10;;;;;;;;;;4921090;29;20122;-87
2022/10/01 13:45:03;;;;;;;0.20;0.20;;;;;;;;;;4921216;29;20055;-88
2022/10/01 13:47:29;;;;;;;0.10;0.10;;;;;;;;;;4937037;29;20455;-88
2022/10/01 13:49:56;;;;;;;0.10;0.10;;;;;;;;;;4952592;29;20047;-91
2022/10/01 13:52:24;;;;;;;0.10;0.10;;;;;;;;;;4921848;29;20075;-91
2022/10/01 13:54:51;;;;;;;0.10;0.10;;;;;;;;;;4924754;29;20475;-90
2022/10/01 13:57:27;;;;;;;0.10;0.10;;;;;;;;;;4940187;29;20074;-91
2022/10/01 14:00:00;;;;;;;0.95;0.95;;;;;;;;;;4923728;29;20040;-88
2022/10/01 14:02:33;;;;;;;0.10;0.10;;;;;;;;;;4952783;28;20043;-91
2022/10/01 14:05:06;;;;;;;0.10;0.10;;;;;;;;;;4949703;28;20031;-91
2022/10/01 14:07:32;;;;;;;0.10;0.10;;;;;;;;;;4965171;28;20047;-90
2022/10/01 14:09:58;;;;;;;0.10;0.10;;;;;;;;;;4944687;29;20491;-92
2022/10/01 14:18:02;;;;;;;0.10;0.10;;;;;;;;;;4942754;29;20074;-90
2022/10/01 14:20:30;;;;;;;0.10;0.10;;;;;;;;;;4924411;29;20042;-90
2022/10/01 14:23:01;;;;;;;0.10;0.10;;;;;;;;;;4924229;29;20054;-90
2022/10/01 14:25:48;;;;;;;0.10;0.10;;;;;;;;;;4940304;29;20122;-89
2022/10/01 14:28:33;;;;;;;0.25;0.25;;;;;;;;;;4924573;29;20443;-91
2022/10/01 14:31:14;;;;;;;0.10;0.10;;;;;;;;;;4923962;29;20046;-91
2022/10/01 14:33:48;;;;;;;0.20;0.20;;;;;;;;;;4939908;29;20051;-92
2022/10/01 14:36:15;;;;;;;0.20;0.20;;;;;;;;;;4939775;29;20436;-91
2022/10/01 14:38:41;;;;;;;0.30;0.30;;;;;;;;;;4939702;29;20046;-91
2022/10/01 14:41:16;;;;;;;0.10;0.10;;;;;;;;;;4923591;28;20043;-93
2022/10/01 14:43:42;;;;;;;0.10;0.10;;;;;;;;;;4952468;29;20047;-92
2022/10/01 14:46:15;;;;;;;0.20;0.20;;;;;;;;;;4920694;29;20044;-93
2022/10/01 14:48:42;;;;;;;0.52;0.20;;;;;;;;;;4920419;29;20047;-93
2022/10/01 14:51:30;;;;;;;0.10;0.10;;;;;;;;;;4920364;29;20138;-92
2022/10/01 14:53:59;;;;;;;0.10;0.10;;;;;;;;;;4921541;29;20047;-95
2022/10/01 14:56:26;;;;;;;0.10;0.10;;;;;;;;;;4922797;29;20036;-94
2022/10/01 14:59:00;;;;;;;0.35;0.35;;;;;;;;;;4922678;29;20040;-95
2022/10/01 15:01:36;;;;;;;0.35;0.35;;;;;;;;;;4952226;29;20068;-92
2022/10/01 15:04:02;;;;;;;0.20;0.20;;;;;;;;;;4936411;29;20126;-93
2022/10/01 15:06:28;;;;;;;0.30;0.30;;;;;;;;;;4936645;29;20479;-91
2022/10/01 15:08:55;;;;;;;0.10;0.10;;;;;;;;;;4921512;29;20406;-94
2022/10/01 15:11:25;;;;;;;0.10;0.10;;;;;;;;;;4920877;29;20054;-93